Terminal Aerodrome Forecast
Issued by NWS

Home | Current Version | Previous Version | Text Only | Print | Product List | Glossary On
Versions: 1 2 3 4 5 6 7 8 9 10 11 12 13 14 15
605
FTUS45 KGGW 221120
TAFSDY
TAF
KSDY 221120Z 2212/2312 28006KT P6SM FEW190
     FM221500 30011G19KT P6SM FEW150
     FM230300 36006KT P6SM SKC
     FM230700 06004KT P6SM SKC=

USA.gov is the U.S. government's official web portal to all federal, state and local government web resources and services.